createdAt,value
2023-02-01T00:01:08.649Z,89.21
2023-02-01T00:03:14.076Z,89.60
2023-02-01T00:05:17.819Z,89.51
2023-02-01T00:07:21.355Z,89.43
2023-02-01T00:09:26.182Z,89.50
2023-02-01T00:11:29.722Z,89.34
2023-02-01T00:13:34.229Z,89.30
2023-02-01T00:15:37.955Z,89.30
2023-02-01T00:17:41.700Z,89.36
2023-02-01T00:19:46.684Z,88.94
2023-02-01T00:21:50.433Z,89.03
2023-02-01T00:23:54.051Z,88.67
2023-02-01T00:25:57.583Z,88.79
2023-02-01T00:28:01.954Z,89.11
2023-02-01T00:30:06.386Z,89.10
2023-02-01T00:32:10.006Z,89.11
2023-02-01T00:34:16.098Z,89.43
2023-02-01T00:36:21.221Z,89.40
2023-02-01T00:38:24.580Z,89.42
2023-02-01T00:40:28.316Z,89.69
2023-02-01T00:42:32.736Z,89.43
2023-02-01T00:44:37.097Z,89.79
2023-02-01T00:46:40.628Z,89.61
2023-02-01T00:48:44.844Z,89.99
2023-02-01T00:50:48.647Z,89.86
2023-02-01T00:52:53.619Z,89.55
2023-02-01T00:54:57.477Z,89.83
2023-02-01T00:57:01.176Z,89.43
2023-02-01T00:59:04.755Z,89.20
2023-02-01T01:01:11.335Z,88.92
2023-02-01T01:03:19.855Z,88.91
2023-02-01T01:05:23.508Z,89.01
2023-02-01T01:07:27.146Z,88.86
2023-02-01T01:09:31.955Z,89.00
2023-02-01T01:11:37.932Z,88.78
2023-02-01T01:13:44.004Z,88.85
2023-02-01T01:15:47.674Z,89.19
2023-02-01T01:17:51.178Z,89.61
2023-02-01T01:19:57.213Z,89.67
2023-02-01T01:22:02.402Z,90.50
2023-02-01T01:24:06.527Z,90.77
2023-02-01T01:26:14.892Z,91.02
2023-02-01T01:28:18.514Z,91.71
2023-02-01T01:30:22.817Z,91.55
2023-02-01T01:32:26.471Z,91.82
2023-02-01T01:34:30.255Z,92.07
2023-02-01T01:36:33.923Z,92.51
2023-02-01T01:38:37.863Z,92.90
2023-02-01T01:40:41.404Z,93.25
2023-02-01T01:42:46.601Z,93.48
2023-02-01T01:45:04.846Z,93.62
2023-02-01T01:47:11.266Z,94.04
2023-02-01T01:49:17.872Z,94.00
2023-02-01T01:51:24.660Z,93.69
2023-02-01T01:53:34.203Z,93.93
2023-02-01T01:55:41.619Z,93.59
2023-02-01T01:57:52.586Z,93.52
2023-02-01T02:00:02.254Z,93.31
2023-02-01T02:02:17.811Z,93.21
2023-02-01T02:04:22.197Z,93.62
2023-02-01T02:06:37.969Z,93.55
2023-02-01T02:08:41.686Z,93.65
2023-02-01T02:11:01.846Z,93.76
2023-02-01T02:13:06.539Z,94.00
2023-02-01T02:15:11.792Z,94.11
2023-02-01T02:17:28.730Z,93.85
2023-02-01T02:20:00.705Z,94.12
2023-02-01T02:22:42.000Z,94.03
2023-02-01T02:25:33.497Z,93.77
2023-02-01T02:27:48.945Z,93.69
2023-02-01T02:30:35.531Z,93.76
2023-02-01T02:33:12.786Z,93.59
2023-02-01T02:35:27.162Z,93.26
2023-02-01T02:37:39.147Z,93.36
2023-02-01T02:39:51.442Z,93.66
2023-02-01T02:42:23.552Z,93.16
2023-02-01T02:44:52.494Z,93.03
2023-02-01T02:47:23.850Z,93.11
2023-02-01T02:49:36.123Z,93.27
2023-02-01T02:52:03.658Z,93.20
2023-02-01T02:54:30.046Z,93.00
2023-02-01T02:56:50.840Z,93.05
2023-02-01T02:59:12.301Z,92.90
2023-02-01T03:01:33.274Z,92.62
2023-02-01T03:03:57.248Z,92.76
2023-02-01T03:06:01.900Z,92.63
2023-02-01T03:08:13.846Z,92.81
2023-02-01T03:10:26.602Z,92.82
2023-02-01T03:12:48.692Z,93.00
2023-02-01T03:14:57.199Z,93.54
2023-02-01T03:17:04.835Z,93.33
2023-02-01T03:19:11.604Z,93.25
2023-02-01T03:21:20.126Z,93.50
2023-02-01T03:23:30.545Z,93.39
2023-02-01T03:25:35.917Z,93.16
2023-02-01T03:27:46.645Z,93.08
2023-02-01T03:29:55.529Z,93.44
2023-02-01T03:31:59.368Z,93.44
2023-02-01T03:34:03.296Z,93.24
2023-02-01T03:36:17.351Z,93.62
2023-02-01T03:38:25.690Z,93.48
2023-02-01T03:40:31.207Z,93.49
2023-02-01T03:42:42.585Z,93.89
2023-02-01T03:44:52.624Z,93.75
2023-02-01T03:47:00.389Z,94.25
2023-02-01T03:49:07.856Z,94.13
2023-02-01T03:51:14.946Z,94.00
2023-02-01T03:53:22.127Z,94.33
2023-02-01T03:55:29.495Z,94.15
2023-02-01T03:57:37.927Z,94.08
2023-02-01T03:59:42.592Z,93.95
2023-02-01T04:01:45.942Z,94.28
2023-02-01T04:03:49.387Z,94.08
2023-02-01T04:05:52.962Z,93.93
2023-02-01T04:08:00.107Z,94.00
2023-02-01T04:10:04.599Z,94.17
2023-02-01T04:12:09.410Z,94.17
2023-02-01T04:14:12.710Z,93.79
2023-02-01T04:16:16.272Z,93.57
2023-02-01T04:18:19.559Z,93.45
2023-02-01T04:20:23.168Z,93.08
2023-02-01T04:22:26.758Z,92.87
2023-02-01T04:24:30.101Z,92.51
2023-02-01T04:26:33.588Z,92.06
2023-02-01T04:28:38.237Z,91.80
2023-02-01T04:30:41.567Z,91.52
2023-02-01T04:32:44.893Z,91.51
2023-02-01T04:34:48.476Z,91.21
2023-02-01T04:36:51.717Z,90.92
2023-02-01T04:38:54.978Z,90.67
2023-02-01T04:40:58.267Z,90.71
2023-02-01T04:43:04.690Z,90.84
2023-02-01T04:45:10.590Z,90.39
2023-02-01T04:47:13.818Z,90.45
2023-02-01T04:49:17.650Z,90.22
2023-02-01T04:51:20.933Z,90.21
2023-02-01T04:53:24.303Z,90.36
2023-02-01T04:55:27.659Z,90.22
2023-02-01T04:57:31.019Z,90.14
2023-02-01T04:59:34.467Z,90.03
2023-02-01T05:01:39.366Z,90.21
2023-02-01T05:03:42.690Z,89.95
2023-02-01T05:05:46.109Z,89.62
2023-02-01T05:07:49.362Z,90.05
2023-02-01T05:09:52.731Z,89.75
2023-02-01T05:12:13.420Z,89.95
2023-02-01T05:14:16.679Z,89.86
2023-02-01T05:16:20.053Z,89.87
2023-02-01T05:18:24.759Z,89.69
2023-02-01T05:20:28.057Z,89.78
2023-02-01T05:22:31.246Z,89.68
2023-02-01T05:24:34.621Z,89.94
2023-02-01T05:26:38.312Z,90.19
2023-02-01T05:28:41.604Z,90.03
2023-02-01T05:30:45.043Z,89.97
2023-02-01T05:32:52.073Z,90.04
2023-02-01T05:34:56.687Z,90.23
2023-02-01T05:36:59.972Z,90.15
2023-02-01T05:39:03.269Z,90.22
2023-02-01T05:41:06.787Z,90.30
2023-02-01T05:43:10.307Z,90.07
2023-02-01T05:45:13.894Z,90.28
2023-02-01T05:47:17.186Z,90.24
2023-02-01T05:49:20.480Z,90.41
2023-02-01T05:51:25.109Z,90.15
2023-02-01T05:53:28.385Z,90.33
2023-02-01T05:55:31.613Z,90.66
2023-02-01T05:57:34.825Z,90.78
2023-02-01T05:59:42.066Z,90.69
2023-02-01T06:01:45.359Z,91.39
2023-02-01T06:03:48.942Z,91.68
2023-02-01T06:05:52.177Z,91.93
2023-02-01T06:07:56.979Z,91.88
2023-02-01T06:10:00.181Z,92.33
2023-02-01T06:12:03.583Z,92.43
2023-02-01T06:14:09.008Z,92.52
2023-02-01T06:16:12.412Z,92.82
2023-02-01T06:18:16.838Z,93.06
2023-02-01T06:20:20.684Z,93.46
2023-02-01T06:22:24.410Z,93.45
2023-02-01T06:24:29.078Z,93.33
2023-02-01T06:26:32.487Z,93.64
2023-02-01T06:28:36.953Z,93.96
2023-02-01T06:30:42.134Z,93.83
2023-02-01T06:32:45.479Z,94.18
2023-02-01T06:34:48.715Z,94.21
2023-02-01T06:36:52.052Z,94.31
2023-02-01T06:38:57.893Z,94.27
2023-02-01T06:41:03.388Z,94.06
2023-02-01T06:43:06.783Z,93.90
2023-02-01T06:45:10.980Z,94.21
2023-02-01T06:47:14.251Z,94.04
2023-02-01T06:49:17.641Z,93.98
2023-02-01T06:51:23.110Z,94.15
2023-02-01T06:53:26.751Z,93.82
2023-02-01T06:55:30.083Z,94.06
2023-02-01T06:57:35.460Z,93.99
2023-02-01T06:59:38.705Z,94.09
2023-02-01T07:01:42.206Z,94.44
2023-02-01T07:03:48.973Z,94.56
2023-02-01T07:05:52.251Z,94.65
2023-02-01T07:07:55.581Z,94.65
2023-02-01T07:09:58.872Z,94.59
2023-02-01T07:12:02.169Z,94.61
2023-02-01T07:14:06.908Z,94.57
2023-02-01T07:16:13.264Z,94.64
2023-02-01T07:18:16.643Z,94.79
2023-02-01T07:20:20.115Z,94.70
2023-02-01T07:22:23.467Z,94.78
2023-02-01T07:24:26.872Z,94.92
2023-02-01T07:26:30.183Z,94.76
2023-02-01T07:28:35.799Z,94.75
2023-02-01T07:30:40.677Z,94.74
2023-02-01T07:32:44.278Z,95.12
2023-02-01T07:34:47.550Z,95.35
2023-02-01T07:36:50.966Z,95.50
2023-02-01T07:38:56.561Z,95.58
2023-02-01T07:41:00.887Z,95.75
2023-02-01T07:43:04.964Z,95.92
2023-02-01T07:45:20.933Z,96.04
2023-02-01T07:47:26.394Z,96.12
2023-02-01T07:49:29.869Z,96.28
2023-02-01T07:51:33.541Z,96.33
2023-02-01T07:53:37.983Z,96.46
2023-02-01T07:55:41.473Z,96.55
2023-02-01T07:57:44.955Z,97.12
2023-02-01T08:00:02.474Z,97.31
2023-02-01T08:02:15.723Z,97.51
2023-02-01T08:04:21.115Z,97.44
2023-02-01T08:06:25.939Z,97.38
2023-02-01T08:08:29.249Z,97.40
2023-02-01T08:10:32.587Z,97.57
2023-02-01T08:12:35.950Z,97.62
2023-02-01T08:14:39.789Z,97.70
2023-02-01T08:16:43.077Z,97.83
2023-02-01T08:18:47.084Z,97.68
2023-02-01T08:20:52.183Z,97.55
2023-02-01T08:22:55.536Z,97.65
2023-02-01T08:25:02.377Z,97.68
2023-02-01T08:27:05.702Z,97.66
2023-02-01T08:29:12.600Z,97.59
2023-02-01T08:31:18.267Z,97.50
2023-02-01T08:33:21.611Z,97.48
2023-02-01T08:35:37.976Z,97.59
2023-02-01T08:37:47.391Z,97.59
2023-02-01T08:39:51.798Z,97.83
2023-02-01T08:42:08.885Z,97.95
2023-02-01T08:44:12.497Z,98.11
2023-02-01T08:46:18.079Z,97.65
2023-02-01T08:48:21.286Z,97.69
2023-02-01T08:50:26.029Z,97.47
2023-02-01T08:52:29.959Z,97.06
2023-02-01T08:54:34.955Z,96.97
2023-02-01T08:56:38.205Z,96.61
2023-02-01T08:58:41.708Z,96.18
2023-02-01T09:00:46.353Z,96.31
2023-02-01T09:02:49.643Z,96.11
2023-02-01T09:04:53.307Z,95.68
2023-02-01T09:06:56.971Z,95.88
2023-02-01T09:09:00.396Z,95.38
2023-02-01T09:11:06.982Z,95.14
2023-02-01T09:13:10.601Z,94.86
2023-02-01T09:15:13.917Z,94.54
2023-02-01T09:17:17.392Z,94.18
2023-02-01T09:19:26.516Z,93.87
2023-02-01T09:21:30.779Z,93.54
2023-02-01T09:23:34.215Z,93.50
2023-02-01T09:25:39.722Z,93.54
2023-02-01T09:27:44.357Z,93.46
2023-02-01T09:29:50.926Z,93.43
2023-02-01T09:32:03.418Z,93.40
2023-02-01T09:34:08.360Z,93.30
2023-02-01T09:36:11.768Z,93.25
2023-02-01T09:38:15.039Z,93.33
2023-02-01T09:40:19.318Z,93.32
2023-02-01T09:42:42.826Z,93.19
2023-02-01T09:45:12.673Z,93.18
2023-02-01T09:47:16.938Z,93.33
2023-02-01T09:49:26.274Z,93.31
2023-02-01T09:51:34.946Z,92.96
2023-02-01T09:53:43.363Z,93.28
2023-02-01T09:55:49.361Z,93.43
2023-02-01T09:57:58.498Z,93.18
2023-02-01T10:00:10.013Z,93.55
2023-02-01T10:02:19.678Z,93.33
2023-02-01T10:04:23.493Z,94.03
2023-02-01T10:06:50.025Z,93.56
2023-02-01T10:09:16.778Z,93.43
2023-02-01T10:11:31.695Z,93.69
2023-02-01T10:13:47.394Z,93.20
2023-02-01T10:16:10.781Z,93.00
2023-02-01T10:18:33.452Z,92.52
2023-02-01T10:20:52.155Z,91.88
2023-02-01T10:23:27.295Z,92.03
2023-02-01T10:25:32.828Z,91.54
2023-02-01T10:27:38.172Z,90.75
2023-02-01T10:29:43.361Z,90.92
2023-02-01T10:31:48.784Z,90.45
2023-02-01T10:33:57.700Z,90.27
2023-02-01T10:36:06.146Z,90.59
2023-02-01T10:38:23.329Z,91.19
2023-02-01T10:40:28.016Z,91.88
2023-02-01T10:42:33.359Z,92.03
2023-02-01T10:44:40.131Z,91.64
2023-02-01T10:46:43.836Z,91.98
2023-02-01T10:48:49.502Z,92.34
2023-02-01T10:50:59.344Z,92.46
2023-02-01T10:53:07.737Z,92.40
2023-02-01T10:55:41.329Z,91.41
2023-02-01T10:57:56.480Z,91.82
2023-02-01T10:59:59.722Z,91.08
2023-02-01T11:02:21.705Z,91.31
2023-02-01T11:04:28.448Z,90.51
2023-02-01T11:06:34.761Z,91.36
2023-02-01T11:08:45.260Z,91.01
2023-02-01T11:10:48.514Z,91.56
2023-02-01T11:12:56.388Z,92.03
2023-02-01T11:15:14.602Z,92.19
2023-02-01T11:17:29.437Z,91.84
2023-02-01T11:19:34.449Z,91.43
2023-02-01T11:21:38.973Z,91.00
2023-02-01T11:23:46.931Z,90.60
2023-02-01T11:25:53.378Z,90.95
2023-02-01T11:27:58.098Z,90.51
2023-02-01T11:30:05.185Z,90.76
2023-02-01T11:32:10.888Z,90.30
2023-02-01T11:34:18.317Z,90.76
2023-02-01T11:36:27.710Z,90.94
2023-02-01T11:38:33.785Z,90.92
2023-02-01T11:40:38.761Z,91.17
2023-02-01T11:42:55.423Z,90.96
2023-02-01T11:45:21.751Z,91.22
2023-02-01T11:47:28.601Z,90.91
2023-02-01T11:49:32.434Z,90.79
2023-02-01T11:51:53.627Z,90.98
2023-02-01T11:54:12.932Z,90.23
2023-02-01T11:56:26.535Z,89.56
2023-02-01T11:58:48.969Z,88.51
2023-02-01T12:01:16.032Z,88.61
2023-02-01T12:04:01.580Z,87.92
2023-02-01T12:06:11.434Z,87.34
2023-02-01T12:08:42.090Z,86.73
2023-02-01T12:10:57.820Z,86.29
2023-02-01T12:13:16.005Z,85.73
2023-02-01T12:15:37.307Z,85.49
2023-02-01T12:17:55.847Z,85.72
2023-02-01T12:20:21.943Z,85.97
2023-02-01T12:22:40.044Z,86.68
2023-02-01T12:25:15.271Z,85.97
2023-02-01T12:27:56.124Z,85.79
2023-02-01T12:30:12.959Z,85.56
2023-02-01T12:32:36.484Z,85.03
2023-02-01T12:34:50.739Z,85.53
2023-02-01T12:37:02.355Z,85.43
2023-02-01T12:39:24.967Z,85.61
2023-02-01T12:41:54.246Z,85.40
2023-02-01T12:44:02.380Z,85.64
2023-02-01T12:46:09.798Z,85.82
2023-02-01T12:48:28.412Z,85.29
2023-02-01T14:30:49.760Z,84.71
2023-02-01T14:32:53.660Z,85.00
2023-02-01T14:35:00.509Z,85.42
2023-02-01T14:37:06.754Z,84.44
2023-02-01T14:39:22.375Z,84.69
2023-02-01T14:41:34.022Z,84.74
2023-02-01T14:43:53.837Z,84.48
2023-02-01T14:45:58.677Z,83.99
2023-02-01T14:48:16.630Z,83.99
2023-02-01T14:50:42.590Z,83.56
2023-02-01T14:52:48.935Z,84.24
2023-02-01T14:54:57.392Z,83.76
2023-02-01T14:57:02.201Z,83.34
2023-02-01T14:59:11.476Z,82.74
2023-02-01T15:01:25.647Z,83.46
2023-02-01T15:03:42.129Z,83.19
2023-02-01T15:05:45.418Z,83.00
2023-02-01T15:07:49.900Z,83.12
2023-02-01T15:09:55.285Z,82.46
2023-02-01T15:12:02.466Z,82.51
2023-02-01T15:14:16.405Z,82.58
2023-02-01T15:16:20.132Z,82.93
2023-02-01T15:18:26.035Z,82.09
2023-02-01T15:20:31.272Z,82.32
2023-02-01T15:22:34.787Z,82.80
2023-02-01T15:24:38.787Z,82.78
2023-02-01T15:26:42.330Z,82.95
2023-02-01T15:28:45.864Z,82.49
2023-02-01T15:31:00.649Z,83.50
2023-02-01T15:33:09.311Z,83.28
2023-02-01T15:35:37.370Z,83.55
2023-02-01T15:37:40.722Z,83.37
2023-02-01T15:40:16.269Z,82.83
2023-02-01T15:42:21.067Z,83.01
2023-02-01T15:44:36.945Z,82.92
2023-02-01T15:46:43.615Z,83.21
2023-02-01T15:48:50.814Z,83.69
2023-02-01T15:50:57.619Z,83.57
2023-02-01T15:53:01.517Z,83.63
2023-02-01T15:55:10.246Z,83.45
2023-02-01T15:57:14.105Z,83.87
2023-02-01T15:59:20.071Z,83.84
2023-02-01T16:01:24.349Z,84.29
2023-02-01T16:03:36.243Z,84.89
2023-02-01T16:05:42.084Z,84.55
2023-02-01T16:08:05.040Z,85.32
2023-02-01T16:10:27.538Z,85.87
2023-02-01T16:12:36.169Z,86.04
2023-02-01T16:14:41.914Z,85.85
2023-02-01T16:16:46.284Z,86.22
2023-02-01T16:18:50.028Z,86.43
2023-02-01T16:20:54.304Z,86.93
2023-02-01T16:22:59.908Z,86.76
2023-02-01T16:25:03.922Z,86.99
2023-02-01T16:27:08.425Z,87.34
2023-02-01T16:29:12.193Z,87.40
2023-02-01T16:31:20.640Z,87.43
2023-02-01T16:33:25.495Z,87.05
2023-02-01T16:35:37.435Z,87.43
2023-02-01T16:37:41.614Z,87.65
2023-02-01T16:39:46.625Z,87.80
2023-02-01T16:41:50.717Z,87.78
2023-02-01T16:43:56.483Z,87.57
2023-02-01T16:46:06.299Z,87.30
2023-02-01T16:48:11.164Z,88.25
2023-02-01T16:50:23.377Z,88.32
2023-02-01T16:52:29.155Z,87.78
2023-02-01T16:54:33.285Z,87.93
2023-02-01T16:56:45.196Z,87.58
2023-02-01T16:58:49.979Z,87.64
2023-02-01T17:00:54.625Z,87.09
2023-02-01T17:02:58.520Z,87.57
2023-02-01T17:05:02.502Z,87.22
2023-02-01T17:07:10.712Z,87.15
2023-02-01T17:09:14.543Z,86.67
2023-02-01T17:11:18.944Z,86.80
2023-02-01T17:13:24.218Z,87.30
2023-02-01T17:15:30.868Z,87.27
2023-02-01T17:17:39.564Z,87.09
2023-02-01T17:19:44.490Z,87.39
2023-02-01T17:21:53.525Z,87.63
2023-02-01T17:23:59.090Z,87.67
2023-02-01T17:26:03.639Z,86.70
2023-02-01T17:28:07.657Z,86.86
2023-02-01T17:30:14.693Z,87.05
2023-02-01T17:32:22.187Z,86.89
2023-02-01T17:34:25.856Z,87.51
2023-02-01T17:36:30.319Z,86.88
2023-02-01T17:38:34.904Z,87.42
2023-02-01T17:40:39.021Z,87.19
2023-02-01T17:42:42.959Z,87.53
2023-02-01T17:44:46.713Z,87.73
2023-02-01T17:46:52.093Z,87.37
2023-02-01T17:48:56.304Z,86.96
2023-02-01T17:51:00.432Z,87.70
2023-02-01T17:53:06.241Z,87.26
2023-02-01T17:55:20.549Z,87.96
2023-02-01T17:57:24.927Z,87.72
2023-02-01T17:59:29.008Z,87.44
2023-02-01T18:01:35.630Z,87.62
2023-02-01T18:03:42.250Z,87.44
2023-02-01T18:05:51.175Z,87.32
2023-02-01T18:07:55.058Z,87.63
2023-02-01T18:09:58.709Z,87.56
2023-02-01T18:12:03.499Z,87.74
2023-02-01T18:14:07.353Z,87.88
2023-02-01T18:16:20.629Z,87.65
2023-02-01T18:18:25.379Z,88.17
2023-02-01T18:20:31.026Z,88.20
2023-02-01T18:22:35.132Z,88.36
2023-02-01T18:24:39.730Z,88.31
2023-02-01T18:26:44.030Z,88.88
2023-02-01T18:28:48.277Z,88.55
2023-02-01T18:30:53.171Z,89.19
2023-02-01T18:32:57.437Z,89.11
2023-02-01T18:35:01.682Z,89.32
2023-02-01T18:37:07.093Z,89.71
2023-02-01T18:39:12.325Z,90.05
2023-02-01T18:41:18.099Z,89.69
2023-02-01T18:43:22.677Z,89.76
2023-02-01T18:45:32.025Z,90.26
2023-02-01T18:47:35.841Z,90.23
2023-02-01T18:49:39.632Z,89.81
2023-02-01T18:51:44.475Z,89.92
2023-02-01T18:53:50.308Z,90.09
2023-02-01T18:55:54.888Z,89.83
2023-02-01T18:57:59.471Z,89.98
2023-02-01T19:00:04.265Z,90.09
2023-02-01T19:02:10.790Z,89.63
2023-02-01T19:04:19.278Z,89.78
2023-02-01T19:06:28.358Z,89.61
2023-02-01T19:08:32.286Z,89.76
2023-02-01T19:10:38.971Z,89.80
2023-02-01T19:12:43.153Z,90.32
2023-02-01T19:14:47.067Z,90.54
2023-02-01T19:16:51.909Z,90.05
2023-02-01T19:18:55.490Z,89.91
2023-02-01T19:21:04.770Z,89.81
2023-02-01T19:23:11.499Z,90.38
2023-02-01T19:25:17.782Z,90.50
2023-02-01T19:27:23.507Z,90.19
2023-02-01T19:29:27.408Z,90.45
2023-02-01T19:31:31.646Z,90.45
2023-02-01T19:33:36.193Z,90.08
2023-02-01T19:35:41.083Z,90.07
2023-02-01T19:37:45.901Z,90.12
2023-02-01T19:39:49.659Z,90.63
2023-02-01T19:41:53.832Z,90.11
2023-02-01T19:43:59.529Z,90.52
2023-02-01T19:46:05.042Z,90.42
2023-02-01T19:48:09.735Z,90.64
2023-02-01T19:50:18.589Z,90.49
2023-02-01T19:52:22.979Z,90.42
2023-02-01T19:54:26.869Z,90.08
2023-02-01T19:56:30.866Z,90.01
2023-02-01T19:58:35.331Z,90.04
2023-02-01T20:00:40.089Z,90.23
2023-02-01T20:02:44.038Z,90.37
2023-02-01T20:04:48.458Z,90.48
2023-02-01T20:06:55.170Z,90.71
2023-02-01T20:09:00.620Z,91.24
2023-02-01T20:11:08.634Z,91.23
2023-02-01T20:13:16.181Z,91.72
2023-02-01T20:15:22.555Z,91.51
2023-02-01T20:17:28.520Z,91.81
2023-02-01T20:19:32.330Z,92.10
2023-02-01T20:21:38.900Z,91.83
2023-02-01T20:23:48.567Z,92.07
2023-02-01T20:25:53.775Z,92.07
2023-02-01T20:28:01.243Z,92.32
2023-02-01T20:30:06.148Z,92.72
2023-02-01T20:32:10.962Z,92.92
2023-02-01T20:34:16.395Z,93.11
2023-02-01T20:36:20.675Z,93.43
2023-02-01T20:38:24.636Z,93.11
2023-02-01T20:40:29.241Z,93.44
2023-02-01T20:42:33.158Z,92.94
2023-02-01T20:44:37.145Z,93.08
2023-02-01T20:46:41.170Z,92.83
2023-02-01T20:48:46.764Z,92.87
2023-02-01T20:50:55.961Z,93.39
2023-02-01T20:53:00.428Z,93.19
2023-02-01T20:55:04.606Z,92.95
2023-02-01T20:57:08.718Z,93.43
2023-02-01T20:59:15.752Z,93.38
2023-02-01T21:01:20.049Z,93.41
2023-02-01T21:03:24.274Z,93.19
2023-02-01T21:05:40.175Z,93.38
2023-02-01T21:07:46.171Z,93.26
2023-02-01T21:09:50.777Z,93.59
2023-02-01T21:11:55.762Z,93.94
2023-02-01T21:13:59.698Z,94.18
2023-02-01T21:16:05.673Z,94.17
2023-02-01T21:18:11.967Z,94.79
2023-02-01T21:20:17.982Z,94.79
2023-02-01T21:22:22.673Z,95.13
2023-02-01T21:24:28.057Z,95.04
2023-02-01T21:26:41.332Z,95.60
2023-02-01T21:28:45.861Z,95.53
2023-02-01T21:30:49.817Z,95.95
2023-02-01T21:32:53.655Z,96.11
2023-02-01T21:34:58.921Z,95.82
2023-02-01T21:37:04.159Z,95.83
2023-02-01T21:39:12.032Z,96.42
2023-02-01T21:41:34.734Z,97.19
2023-02-01T21:43:39.360Z,98.10
2023-02-01T21:45:50.936Z,97.93
2023-02-01T21:47:55.867Z,98.40
2023-02-01T21:49:59.849Z,98.62
2023-02-01T21:52:04.283Z,99.03
2023-02-01T21:54:09.751Z,99.59
2023-02-01T21:56:13.908Z,99.59
2023-02-01T21:58:19.006Z,99.65
2023-02-01T22:00:24.156Z,99.55
2023-02-01T22:02:29.195Z,100.00
2023-02-01T22:04:32.845Z,100.00
2023-02-01T22:06:39.672Z,100.00
2023-02-01T22:08:43.411Z,100.00
2023-02-01T22:10:47.377Z,100.00
2023-02-01T22:12:51.579Z,100.00
2023-02-01T22:14:56.903Z,100.00
2023-02-01T22:17:00.897Z,100.00
2023-02-01T22:19:04.725Z,100.00
2023-02-01T22:21:08.526Z,100.00
2023-02-01T22:23:12.458Z,100.00
2023-02-01T22:25:16.607Z,100.00
2023-02-01T22:27:20.511Z,100.00
2023-02-01T22:29:27.155Z,100.00
2023-02-01T22:31:32.054Z,100.00
2023-02-01T22:33:36.632Z,100.00
2023-02-01T22:35:41.069Z,100.00
2023-02-01T22:37:45.541Z,100.00
2023-02-01T22:39:49.579Z,100.00
2023-02-01T22:41:53.679Z,100.00
2023-02-01T22:43:57.932Z,100.00
2023-02-01T22:46:03.089Z,100.00
2023-02-01T22:48:08.954Z,100.00
2023-02-01T22:50:13.372Z,100.00
2023-02-01T22:52:17.511Z,100.00
2023-02-01T22:54:22.661Z,100.00
2023-02-01T22:56:27.755Z,100.00
2023-02-01T22:58:31.817Z,100.00
2023-02-01T23:00:35.952Z,100.00
2023-02-01T23:02:39.782Z,100.00
2023-02-01T23:04:45.446Z,100.00
2023-02-01T23:06:50.659Z,100.00
2023-02-01T23:08:57.421Z,100.00
2023-02-01T23:11:01.503Z,100.00
2023-02-01T23:13:05.626Z,100.00
2023-02-01T23:15:10.401Z,100.00
2023-02-01T23:17:14.086Z,100.00
2023-02-01T23:19:18.612Z,100.00
2023-02-01T23:21:25.000Z,100.00
2023-02-01T23:23:28.741Z,100.00
2023-02-01T23:25:32.581Z,100.00
2023-02-01T23:27:36.265Z,100.00
2023-02-01T23:29:39.982Z,100.00
2023-02-01T23:31:43.684Z,100.00
2023-02-01T23:33:49.358Z,100.00
2023-02-01T23:35:57.722Z,100.00
2023-02-01T23:38:02.974Z,100.00
2023-02-01T23:40:08.182Z,100.00
2023-02-01T23:42:11.982Z,100.00
2023-02-01T23:44:14.773Z,100.00
2023-02-01T23:46:19.883Z,100.00
2023-02-01T23:48:23.476Z,100.00
2023-02-01T23:50:27.143Z,100.00
2023-02-01T23:52:31.475Z,100.00
2023-02-01T23:54:37.528Z,100.00
2023-02-01T23:56:43.735Z,100.00
2023-02-01T23:58:48.245Z,100.00
